createdAt,value
2019-04-01T00:01:48.564Z,12.15
2019-04-01T00:04:31.005Z,11.15
2019-04-01T00:07:13.822Z,10.72
2019-04-01T00:09:56.346Z,11.28
2019-04-01T00:12:32.117Z,12.10
2019-04-01T00:15:15.079Z,12.15
2019-04-01T00:17:57.689Z,9.00
2019-04-01T00:20:46.736Z,12.18
2019-04-01T00:23:29.516Z,12.10
2019-04-01T00:26:05.592Z,12.10
2019-04-01T00:28:48.438Z,11.65
2019-04-01T00:31:24.705Z,12.65
2019-04-01T00:34:07.050Z,12.23
2019-04-01T00:36:42.635Z,12.30
2019-04-01T00:39:25.791Z,12.15
2019-04-01T00:42:12.170Z,11.08
2019-04-01T00:44:54.213Z,11.43
2019-04-01T00:47:36.776Z,11.83
2019-04-01T00:50:20.705Z,12.75
2019-04-01T00:52:56.559Z,12.30
2019-04-01T00:55:39.477Z,11.55
2019-04-01T00:58:22.161Z,11.25
2019-04-01T01:01:05.202Z,11.88
2019-04-01T01:03:41.750Z,12.80
2019-04-01T01:06:24.262Z,11.75
2019-04-01T01:08:59.853Z,11.78
2019-04-01T01:11:42.014Z,12.78
2019-04-01T01:14:30.606Z,11.78
2019-04-01T01:17:12.430Z,11.63
2019-04-01T01:19:48.106Z,10.68
2019-04-01T01:22:30.860Z,10.70
2019-04-01T01:25:06.906Z,10.82
2019-04-01T01:27:42.622Z,10.95
2019-04-01T01:30:25.533Z,11.22
2019-04-01T01:33:07.621Z,10.30
2019-04-01T01:35:43.995Z,10.08
2019-04-01T01:38:26.913Z,9.80
2019-04-01T01:41:03.388Z,14.68
2019-04-01T01:43:46.648Z,10.60
2019-04-01T01:46:22.048Z,9.85
2019-04-01T01:49:04.092Z,9.43
2019-04-01T01:51:40.042Z,10.08
2019-04-01T01:54:22.325Z,10.03
2019-04-01T01:56:58.298Z,10.95
2019-04-01T01:59:41.529Z,9.95
2019-04-01T02:02:17.599Z,9.70
2019-04-01T02:05:00.608Z,9.58
2019-04-01T02:07:36.987Z,9.55
2019-04-01T02:10:19.451Z,9.55
2019-04-01T02:13:01.480Z,8.48
2019-04-01T02:15:43.517Z,8.53
2019-04-01T02:18:19.867Z,8.50
2019-04-01T02:21:01.702Z,9.03
2019-04-01T02:23:44.817Z,9.08
2019-04-01T02:26:20.386Z,7.65
2019-04-01T02:29:02.925Z,7.10
2019-04-01T02:31:52.148Z,6.80
2019-04-01T02:34:33.785Z,7.67
2019-04-01T02:37:09.681Z,7.08
2019-04-01T02:39:52.760Z,7.90
2019-04-01T02:42:35.385Z,7.95
2019-04-01T02:45:18.118Z,6.80
2019-04-01T02:47:53.780Z,5.85
2019-04-01T02:50:29.630Z,8.43
2019-04-01T02:53:12.092Z,8.48
2019-04-01T02:55:47.828Z,8.50
2019-04-01T02:58:30.558Z,8.10
2019-04-01T03:01:12.605Z,7.60
2019-04-01T03:03:55.603Z,7.80
2019-04-01T03:06:38.243Z,9.65
2019-04-01T03:09:14.762Z,8.67
2019-04-01T03:11:56.884Z,7.45
2019-04-01T03:14:39.531Z,8.35
2019-04-01T03:17:15.361Z,7.27
2019-04-01T03:19:57.673Z,7.55
2019-04-01T03:22:33.346Z,7.42
2019-04-01T03:25:09.020Z,7.85
2019-04-01T03:27:45.439Z,11.48
2019-04-01T03:30:27.962Z,11.78
2019-04-01T03:33:04.412Z,9.50
2019-04-01T03:35:46.670Z,9.35
2019-04-01T03:38:22.202Z,8.38
2019-04-01T03:41:04.879Z,8.08
2019-04-01T03:43:41.338Z,7.80
2019-04-01T03:46:24.063Z,8.20
2019-04-01T03:49:00.930Z,7.30
2019-04-01T03:51:42.996Z,7.00
2019-04-01T03:54:19.441Z,8.00
2019-04-01T03:57:01.434Z,8.23
2019-04-01T03:59:43.573Z,11.05
2019-04-01T04:02:26.123Z,15.60
2019-04-01T04:05:02.381Z,16.00
2019-04-01T04:07:44.406Z,13.00
2019-04-01T04:10:27.521Z,13.15
2019-04-01T04:13:09.092Z,15.43
2019-04-01T04:15:44.705Z,18.25
2019-04-01T04:18:26.912Z,16.67
2019-04-01T04:21:03.234Z,14.15
2019-04-01T04:23:45.724Z,14.70
2019-04-01T04:26:22.201Z,13.35
2019-04-01T04:29:04.698Z,12.50
2019-04-01T04:31:47.679Z,10.23
2019-04-01T04:34:23.151Z,10.45
2019-04-01T04:37:06.267Z,10.00
2019-04-01T04:39:49.109Z,8.68
2019-04-01T04:42:31.637Z,8.88
2019-04-01T04:45:08.835Z,9.15
2019-04-01T04:47:44.975Z,8.80
2019-04-01T04:50:21.822Z,8.53
2019-04-01T04:53:04.737Z,9.70
2019-04-01T04:55:40.899Z,10.58
2019-04-01T04:58:23.544Z,12.28
2019-04-01T05:00:59.393Z,12.97
2019-04-01T05:03:42.167Z,11.48
2019-04-01T05:06:39.370Z,11.65
2019-04-01T05:09:21.773Z,10.45
2019-04-01T05:11:57.359Z,10.88
2019-04-01T05:14:39.421Z,11.10
2019-04-01T05:17:14.885Z,9.45
2019-04-01T05:19:56.636Z,10.63
2019-04-01T05:22:33.335Z,9.88
2019-04-01T05:25:15.990Z,10.10
2019-04-01T05:28:01.901Z,7.85
2019-04-01T05:30:38.617Z,10.45
2019-04-01T05:33:23.141Z,10.68
2019-04-01T05:35:58.837Z,12.15
2019-04-01T05:38:41.703Z,11.73
2019-04-01T05:41:24.609Z,12.95
2019-04-01T05:44:02.473Z,11.60
2019-04-01T05:46:38.907Z,11.15
2019-04-01T05:49:15.480Z,11.75
2019-04-01T05:51:51.258Z,11.28
2019-04-01T05:54:34.518Z,12.40
2019-04-01T05:57:17.380Z,11.55
2019-04-01T06:00:00.446Z,11.93
2019-04-01T06:02:36.337Z,15.40
2019-04-01T06:05:19.269Z,12.95
2019-04-01T06:07:55.561Z,14.00
2019-04-01T06:10:39.029Z,14.58
2019-04-01T06:13:15.087Z,11.43
2019-04-01T06:15:57.296Z,10.58
2019-04-01T06:18:33.976Z,10.75
2019-04-01T06:21:16.855Z,11.65
2019-04-01T06:24:00.068Z,9.85
2019-04-01T06:26:35.889Z,8.88
2019-04-01T06:29:18.879Z,10.05
2019-04-01T06:32:01.105Z,7.75
2019-04-01T06:34:52.714Z,7.65
2019-04-01T06:37:21.791Z,7.45
2019-04-01T06:40:04.038Z,7.17
2019-04-01T06:42:53.103Z,8.78
2019-04-01T06:45:29.509Z,9.00
2019-04-01T06:48:12.768Z,7.05
2019-04-01T06:50:54.558Z,6.75
2019-04-01T06:53:30.975Z,5.47
2019-04-01T06:56:13.335Z,5.78
2019-04-01T06:58:56.375Z,7.12
2019-04-01T07:01:38.644Z,6.33
2019-04-01T07:04:14.539Z,7.03
2019-04-01T07:06:56.547Z,6.53
2019-04-01T07:09:32.269Z,7.42
2019-04-01T07:12:14.024Z,7.95
2019-04-01T07:14:50.706Z,7.00
2019-04-01T07:17:34.115Z,6.85
2019-04-01T07:20:10.088Z,5.80
2019-04-01T07:22:52.494Z,5.40
2019-04-01T07:25:28.989Z,5.58
2019-04-01T07:28:11.583Z,5.87
2019-04-01T07:30:47.676Z,6.20
2019-04-01T07:33:30.146Z,6.53
2019-04-01T07:36:19.795Z,6.87
2019-04-01T07:39:02.765Z,6.35
2019-04-01T07:41:39.116Z,6.85
2019-04-01T07:44:22.994Z,6.30
2019-04-01T07:46:59.148Z,6.22
2019-04-01T07:49:42.174Z,6.08
2019-04-01T07:52:25.129Z,5.70
2019-04-01T07:55:08.020Z,4.60
2019-04-01T07:57:44.410Z,5.43
2019-04-01T08:00:27.335Z,5.10
2019-04-01T08:03:04.146Z,3.73
2019-04-01T08:05:47.339Z,3.50
2019-04-01T08:08:30.172Z,2.67
2019-04-01T08:11:06.149Z,3.15
2019-04-01T08:13:48.695Z,2.83
2019-04-01T08:16:24.490Z,2.20
2019-04-01T08:19:07.360Z,2.05
2019-04-01T08:21:56.826Z,2.60
2019-04-01T08:24:32.680Z,3.10
2019-04-01T08:27:15.232Z,10.45
2019-04-01T08:29:50.860Z,6.10
2019-04-01T08:32:34.246Z,1.82
2019-04-01T08:35:17.462Z,2.08
2019-04-01T08:37:54.094Z,2.50
2019-04-01T08:40:36.077Z,2.30
2019-04-01T08:43:12.385Z,3.30
2019-04-01T08:45:55.300Z,2.80
2019-04-01T08:48:35.329Z,2.23
2019-04-01T08:51:16.291Z,2.00
2019-04-01T08:53:53.149Z,2.27
2019-04-01T08:56:38.077Z,1.57
2019-04-01T08:59:20.697Z,1.62
2019-04-01T09:02:17.711Z,3.75
2019-04-01T09:04:53.610Z,7.30
2019-04-01T09:07:29.792Z,2.33
2019-04-01T09:10:07.445Z,2.08
2019-04-01T09:12:51.052Z,2.15
2019-04-01T09:15:40.258Z,2.27
2019-04-01T09:18:23.197Z,2.08
2019-04-01T09:20:59.562Z,2.13
2019-04-01T09:23:41.841Z,2.30
2019-04-01T09:26:17.489Z,1.80
2019-04-01T09:29:00.290Z,2.20
2019-04-01T09:31:36.367Z,1.92
2019-04-01T09:34:19.359Z,2.22
2019-04-01T09:37:02.592Z,1.90
2019-04-01T09:39:39.073Z,2.72
2019-04-01T09:42:22.131Z,2.37
2019-04-01T09:45:04.317Z,1.95
2019-04-01T09:47:46.514Z,6.47
2019-04-01T09:50:29.753Z,2.08
2019-04-01T09:53:06.030Z,1.92
2019-04-01T09:55:48.557Z,1.80
2019-04-01T09:58:24.958Z,1.22
2019-04-01T10:01:07.916Z,1.22
2019-04-01T10:03:50.858Z,1.00
2019-04-01T10:06:39.889Z,0.93
2019-04-01T10:09:15.641Z,0.80
2019-04-01T10:11:58.532Z,3.50
2019-04-01T10:14:47.253Z,1.10
2019-04-01T10:17:23.779Z,1.85
2019-04-01T10:20:06.713Z,3.02
2019-04-01T10:22:42.669Z,30.97
2019-04-01T10:25:26.245Z,1.42
2019-04-01T10:28:15.306Z,37.28
2019-04-01T10:30:51.730Z,5.75
2019-04-01T10:33:34.178Z,1.50
2019-04-01T10:36:16.999Z,1.90
2019-04-01T10:38:53.366Z,1.65
2019-04-01T10:41:35.544Z,1.70
2019-04-01T10:44:18.831Z,3.20
2019-04-01T10:46:54.742Z,1.45
2019-04-01T10:49:37.976Z,3.22
2019-04-01T10:52:26.678Z,1.30
2019-04-01T10:55:02.331Z,2.87
2019-04-01T10:57:38.854Z,1.42
2019-04-01T11:00:16.112Z,2.30
2019-04-01T11:02:58.661Z,1.20
2019-04-01T11:05:41.534Z,1.40
2019-04-01T11:08:17.987Z,2.47
2019-04-01T11:11:00.430Z,2.55
2019-04-01T11:13:36.864Z,2.77
2019-04-01T11:16:18.669Z,1.10
2019-04-01T11:19:01.295Z,1.15
2019-04-01T11:21:50.434Z,0.88
2019-04-01T11:24:32.493Z,1.00
2019-04-01T11:27:08.084Z,1.40
2019-04-01T11:29:50.994Z,1.40
2019-04-01T11:32:26.558Z,1.03
2019-04-01T11:35:08.638Z,1.00
2019-04-01T11:37:51.698Z,1.10
2019-04-01T11:40:37.025Z,1.62
2019-04-01T11:43:19.388Z,0.95
2019-04-01T11:46:12.529Z,1.80
2019-04-01T11:48:47.990Z,0.82
2019-04-01T11:51:33.023Z,1.20
2019-04-01T11:54:21.503Z,1.50
2019-04-01T11:57:03.251Z,1.25
2019-04-01T11:59:38.882Z,1.72
2019-04-01T12:02:20.747Z,1.40
2019-04-01T12:04:57.261Z,1.20
2019-04-01T12:07:40.019Z,1.20
2019-04-01T12:10:23.651Z,1.20
2019-04-01T12:13:05.750Z,1.32
2019-04-01T12:15:42.287Z,1.30
2019-04-01T12:18:24.315Z,1.35
2019-04-01T12:21:08.261Z,1.60
2019-04-01T12:23:50.846Z,1.52
2019-04-01T12:26:34.096Z,1.80
2019-04-01T12:29:15.912Z,1.55
2019-04-01T12:31:52.264Z,1.82
2019-04-01T12:34:35.621Z,1.60
2019-04-01T12:37:11.496Z,1.98
2019-04-01T12:39:53.149Z,1.60
2019-04-01T12:42:36.378Z,1.65
2019-04-01T12:45:12.230Z,1.82
2019-04-01T12:48:00.772Z,1.80
2019-04-01T12:50:43.616Z,1.47
2019-04-01T12:53:20.260Z,1.70
2019-04-01T12:56:02.571Z,1.37
2019-04-01T12:58:38.461Z,1.30
2019-04-01T13:01:21.138Z,1.50
2019-04-01T13:04:04.472Z,1.72
2019-04-01T13:06:47.850Z,1.40
2019-04-01T13:09:24.436Z,1.80
2019-04-01T13:12:06.233Z,1.47
2019-04-01T13:14:48.827Z,1.80
2019-04-01T13:17:30.951Z,12.98
2019-04-01T13:20:14.125Z,1.90
2019-04-01T13:22:56.622Z,2.50
2019-04-01T13:25:39.060Z,1.80
2019-04-01T13:28:28.236Z,1.30
2019-04-01T13:31:03.823Z,1.60
2019-04-01T13:33:45.947Z,1.10
2019-04-01T13:36:28.161Z,1.72
2019-04-01T13:39:05.138Z,2.35
2019-04-01T13:41:47.874Z,0.98
2019-04-01T13:44:36.057Z,2.55
2019-04-01T13:47:08.333Z,1.62
2019-04-01T13:49:44.601Z,1.42
2019-04-01T13:52:27.246Z,1.95
2019-04-01T13:55:02.988Z,1.50
2019-04-01T13:57:46.072Z,1.35
2019-04-01T14:00:27.052Z,1.47
2019-04-01T14:03:07.165Z,1.40
2019-04-01T14:05:43.648Z,1.32
2019-04-01T14:08:26.027Z,1.25
2019-04-01T14:11:05.699Z,1.20
2019-04-01T14:13:46.240Z,1.25
2019-04-01T14:16:22.362Z,1.47
2019-04-01T14:19:04.856Z,1.75
2019-04-01T14:21:40.958Z,1.62
2019-04-01T14:24:23.462Z,1.55
2019-04-01T14:26:59.390Z,2.40
2019-04-01T14:29:42.025Z,1.57
2019-04-01T14:32:18.592Z,1.70
2019-04-01T14:35:01.675Z,1.10
2019-04-01T14:37:39.634Z,1.45
2019-04-01T14:40:22.123Z,1.50
2019-04-01T14:43:04.600Z,1.40
2019-04-01T14:45:47.297Z,1.40
2019-04-01T14:48:23.729Z,1.80
2019-04-01T14:51:06.363Z,2.33
2019-04-01T14:53:49.515Z,1.80
2019-04-01T14:56:32.540Z,1.87
2019-04-01T14:59:09.075Z,2.10
2019-04-01T15:01:51.385Z,1.90
2019-04-01T15:04:34.564Z,1.77
2019-04-01T15:07:18.293Z,2.77
2019-04-01T15:09:54.200Z,2.35
2019-04-01T15:12:36.101Z,1.92
2019-04-01T15:15:15.072Z,1.52
2019-04-01T15:17:57.624Z,1.52
2019-04-01T15:20:40.376Z,2.05
2019-04-01T15:23:25.014Z,3.92
2019-04-01T15:26:07.103Z,2.17
2019-04-01T15:28:42.588Z,1.55
2019-04-01T15:31:25.778Z,1.52
2019-04-01T15:34:09.278Z,1.70
2019-04-01T15:36:45.288Z,2.10
2019-04-01T15:39:27.395Z,1.47
2019-04-01T15:42:10.428Z,1.47
2019-04-01T15:44:52.829Z,2.37
2019-04-01T15:47:31.090Z,1.62
2019-04-01T15:50:27.869Z,1.50
2019-04-01T15:52:52.622Z,1.90
2019-04-01T15:55:35.033Z,4.62
2019-04-01T15:58:11.488Z,2.58
2019-04-01T16:00:54.513Z,1.60
2019-04-01T16:03:30.732Z,8.60
2019-04-01T16:06:13.199Z,4.70
2019-04-01T16:08:49.611Z,6.10
2019-04-01T16:11:32.014Z,1.87
2019-04-01T16:14:14.943Z,2.17
2019-04-01T16:16:56.926Z,2.72
2019-04-01T16:19:33.370Z,1.67
2019-04-01T16:22:16.320Z,2.33
2019-04-01T16:25:05.502Z,6.37
2019-04-01T16:27:42.910Z,3.20
2019-04-01T16:30:19.621Z,4.12
2019-04-01T16:32:55.130Z,6.35
2019-04-01T16:35:30.944Z,3.27
2019-04-01T16:38:06.989Z,2.60
2019-04-01T16:40:52.342Z,2.58
2019-04-01T16:46:09.288Z,3.75
2019-04-01T16:48:58.651Z,2.65
2019-04-01T16:51:34.948Z,2.35
2019-04-01T16:54:17.367Z,4.12
2019-04-01T16:56:53.503Z,10.25
2019-04-01T16:59:35.970Z,12.05
2019-04-01T17:02:18.667Z,8.90
2019-04-01T17:04:54.572Z,13.93
2019-04-01T17:07:36.678Z,8.70
2019-04-01T17:10:14.452Z,5.75
2019-04-01T17:12:56.472Z,8.40
2019-04-01T17:15:32.666Z,26.60
2019-04-01T17:18:15.351Z,7.35
2019-04-01T17:21:00.734Z,3.33
2019-04-01T17:23:43.514Z,2.87
2019-04-01T17:26:20.017Z,2.80
2019-04-01T17:29:03.179Z,3.35
2019-04-01T17:31:39.593Z,2.83
2019-04-01T17:34:21.393Z,2.70
2019-04-01T17:37:01.045Z,3.12
2019-04-01T17:39:41.897Z,5.25
2019-04-01T17:42:18.209Z,3.37
2019-04-01T17:45:05.465Z,4.58
2019-04-01T17:47:41.117Z,3.70
2019-04-01T17:50:17.836Z,4.50
2019-04-01T17:52:59.579Z,3.95
2019-04-01T17:55:45.555Z,4.45
2019-04-01T17:58:34.802Z,4.95
2019-04-01T18:01:10.971Z,6.70
2019-04-01T18:03:53.417Z,8.90
2019-04-01T18:06:36.100Z,8.55
2019-04-01T18:09:21.929Z,11.10
2019-04-01T18:12:04.387Z,15.93
2019-04-01T18:14:40.134Z,13.18
2019-04-01T18:17:18.387Z,14.05
2019-04-01T18:20:00.590Z,13.40
2019-04-01T18:22:50.726Z,12.70
2019-04-01T18:25:26.527Z,11.55
2019-04-01T18:28:09.532Z,10.40
2019-04-01T18:30:45.864Z,10.75
2019-04-01T18:33:30.053Z,11.70
2019-04-01T18:36:13.231Z,10.00
2019-04-01T18:38:56.347Z,8.60
2019-04-01T18:41:33.193Z,11.53
2019-04-01T18:44:18.643Z,12.68
2019-04-01T18:46:54.737Z,14.33
2019-04-01T18:49:37.214Z,15.90
2019-04-01T18:52:19.599Z,19.20
2019-04-01T18:54:55.234Z,23.98
2019-04-01T18:57:37.730Z,26.85
2019-04-01T19:00:18.837Z,26.27
2019-04-01T19:03:02.568Z,15.98
2019-04-01T19:08:28.377Z,16.83
2019-04-01T19:11:04.103Z,15.80
2019-04-01T19:13:45.779Z,14.05
2019-04-01T19:16:23.159Z,11.40
2019-04-01T19:19:06.489Z,10.45
2019-04-01T19:21:42.811Z,10.55
2019-04-01T19:24:24.607Z,10.75
2019-04-01T19:27:00.813Z,11.28
2019-04-01T19:29:45.398Z,13.15
2019-04-01T19:32:21.523Z,29.23
2019-04-01T19:35:04.951Z,21.40
2019-04-01T19:37:47.517Z,23.27
2019-04-01T19:40:30.400Z,20.97
2019-04-01T19:43:06.860Z,21.85
2019-04-01T19:45:50.788Z,15.80
2019-04-01T19:48:26.462Z,17.80
2019-04-01T19:51:08.687Z,13.13
2019-04-01T19:53:45.217Z,12.43
2019-04-01T19:56:27.242Z,13.18
2019-04-01T19:59:03.659Z,22.85
2019-04-01T20:01:46.843Z,14.30
2019-04-01T20:04:23.699Z,13.88
2019-04-01T20:07:05.999Z,16.32
2019-04-01T20:09:41.703Z,14.65
2019-04-01T20:12:24.134Z,13.28
2019-04-01T20:15:00.766Z,19.95
2019-04-01T20:17:43.542Z,20.62
2019-04-01T20:20:20.095Z,17.33
2019-04-01T20:23:02.326Z,14.93
2019-04-01T20:25:51.914Z,13.48
2019-04-01T20:28:34.285Z,15.32
2019-04-01T20:31:16.523Z,12.55
2019-04-01T20:33:52.132Z,13.28
2019-04-01T20:36:34.697Z,14.98
2019-04-01T20:39:10.586Z,14.78
2019-04-01T20:41:53.567Z,13.65
2019-04-01T20:44:36.565Z,12.65
2019-04-01T20:47:12.482Z,10.90
2019-04-01T20:49:55.152Z,11.85
2019-04-01T20:52:38.123Z,9.78
2019-04-01T20:55:20.976Z,8.65
2019-04-01T20:57:56.698Z,10.32
2019-04-01T21:00:38.896Z,8.88
2019-04-01T21:03:14.397Z,10.38
2019-04-01T21:05:50.393Z,11.25
2019-04-01T21:08:32.948Z,10.05
2019-04-01T21:11:15.219Z,10.48
2019-04-01T21:14:01.203Z,9.98
2019-04-01T21:16:43.363Z,9.90
2019-04-01T21:19:19.355Z,10.28
2019-04-01T21:21:55.901Z,9.55
2019-04-01T21:24:38.676Z,8.63
2019-04-01T21:27:21.554Z,9.63
2019-04-01T21:30:04.507Z,8.75
2019-04-01T21:32:40.569Z,8.68
2019-04-01T21:35:23.073Z,9.25
2019-04-01T21:38:05.285Z,9.18
2019-04-01T21:40:47.744Z,8.85
2019-04-01T21:43:36.634Z,9.38
2019-04-01T21:46:19.102Z,10.60
2019-04-01T21:49:02.149Z,11.15
2019-04-01T21:51:51.519Z,7.28
2019-04-01T21:54:35.096Z,9.45
2019-04-01T21:57:11.589Z,10.55
2019-04-01T21:59:53.974Z,9.05
2019-04-01T22:02:35.748Z,11.10
2019-04-01T22:05:15.234Z,10.88
2019-04-01T22:07:57.649Z,7.75
2019-04-01T22:10:46.692Z,10.18
2019-04-01T22:13:22.264Z,10.03
2019-04-01T22:16:04.714Z,10.48
2019-04-01T22:18:40.378Z,10.08
2019-04-01T22:21:22.675Z,10.90
2019-04-01T22:24:11.416Z,10.50
2019-04-01T22:26:53.170Z,11.00
2019-04-01T22:29:29.362Z,10.05
2019-04-01T22:32:13.019Z,10.25
2019-04-01T22:37:30.877Z,9.58
2019-04-01T22:40:07.308Z,9.33
2019-04-01T22:42:49.305Z,10.10
2019-04-01T22:45:24.927Z,9.20
2019-04-01T22:48:07.107Z,9.83
2019-04-01T22:50:43.555Z,9.53
2019-04-01T22:53:26.326Z,8.88
2019-04-01T22:56:01.803Z,10.20
2019-04-01T22:58:44.039Z,9.98
2019-04-01T23:01:19.665Z,10.38
2019-04-01T23:04:02.573Z,11.30
2019-04-01T23:06:38.390Z,11.15
2019-04-01T23:09:20.926Z,10.45
2019-04-01T23:12:03.194Z,10.18
2019-04-01T23:14:39.843Z,11.38
2019-04-01T23:17:15.605Z,12.82
2019-04-01T23:19:51.204Z,11.57
2019-04-01T23:22:33.966Z,11.08
2019-04-01T23:25:16.651Z,11.33
2019-04-01T23:27:52.467Z,10.87
2019-04-01T23:30:35.032Z,11.05
2019-04-01T23:33:17.554Z,12.03
2019-04-01T23:36:00.442Z,11.85
2019-04-01T23:38:36.880Z,11.88
2019-04-01T23:41:19.601Z,11.45
2019-04-01T23:43:55.990Z,14.10
2019-04-01T23:46:39.157Z,17.27
2019-04-01T23:49:22.136Z,14.10
2019-04-01T23:52:05.483Z,14.35
2019-04-01T23:54:42.174Z,13.30
2019-04-01T23:57:25.131Z,15.55
